sensor_id;sensor_type;location;lat;lon;timestamp;P1;durP1;ratioP1;P2;durP2;ratioP2
18251;SDS011;26917;52.328;20.878;2022-07-17T00:02:28;15.45;;;5.88;;
18251;SDS011;26917;52.328;20.878;2022-07-17T00:04:59;13.85;;;5.75;;
18251;SDS011;26917;52.328;20.878;2022-07-17T00:07:46;8.35;;;5.57;;
18251;SDS011;26917;52.328;20.878;2022-07-17T00:10:56;9.55;;;5.25;;
18251;SDS011;26917;52.328;20.878;2022-07-17T00:13:25;20.65;;;5.40;;
18251;SDS011;26917;52.328;20.878;2022-07-17T00:15:57;12.75;;;5.15;;
18251;SDS011;26917;52.328;20.878;2022-07-17T00:18:27;13.90;;;6.35;;
18251;SDS011;26917;52.328;20.878;2022-07-17T00:20:55;12.13;;;5.07;;
18251;SDS011;26917;52.328;20.878;2022-07-17T00:29:54;16.65;;;4.50;;
18251;SDS011;26917;52.328;20.878;2022-07-17T00:32:27;10.38;;;5.90;;
18251;SDS011;26917;52.328;20.878;2022-07-17T00:34:59;12.30;;;5.05;;
18251;SDS011;26917;52.328;20.878;2022-07-17T00:40:31;9.73;;;4.35;;
18251;SDS011;26917;52.328;20.878;2022-07-17T00:43:08;10.77;;;4.68;;
18251;SDS011;26917;52.328;20.878;2022-07-17T00:45:39;11.80;;;4.80;;
18251;SDS011;26917;52.328;20.878;2022-07-17T00:48:17;17.70;;;5.13;;
18251;SDS011;26917;52.328;20.878;2022-07-17T00:51:53;10.30;;;5.03;;
18251;SDS011;26917;52.328;20.878;2022-07-17T00:54:29;5.65;;;4.18;;
18251;SDS011;26917;52.328;20.878;2022-07-17T00:57:11;9.65;;;5.30;;
18251;SDS011;26917;52.328;20.878;2022-07-17T00:59:48;8.80;;;4.63;;
18251;SDS011;26917;52.328;20.878;2022-07-17T01:02:49;7.40;;;4.85;;
18251;SDS011;26917;52.328;20.878;2022-07-17T01:05:25;9.65;;;4.63;;
18251;SDS011;26917;52.328;20.878;2022-07-17T01:10:57;9.13;;;4.47;;
18251;SDS011;26917;52.328;20.878;2022-07-17T01:13:29;11.85;;;4.35;;
18251;SDS011;26917;52.328;20.878;2022-07-17T01:15:59;12.02;;;4.80;;
18251;SDS011;26917;52.328;20.878;2022-07-17T01:21:55;6.43;;;4.80;;
18251;SDS011;26917;52.328;20.878;2022-07-17T01:24:23;9.90;;;5.45;;
18251;SDS011;26917;52.328;20.878;2022-07-17T01:26:54;9.70;;;4.82;;
18251;SDS011;26917;52.328;20.878;2022-07-17T01:29:56;9.23;;;5.30;;
18251;SDS011;26917;52.328;20.878;2022-07-17T01:32:33;7.30;;;4.38;;
18251;SDS011;26917;52.328;20.878;2022-07-17T01:36:05;10.38;;;5.43;;
18251;SDS011;26917;52.328;20.878;2022-07-17T01:38:41;17.75;;;5.07;;
18251;SDS011;26917;52.328;20.878;2022-07-17T01:41:09;25.05;;;5.32;;
18251;SDS011;26917;52.328;20.878;2022-07-17T01:43:41;12.00;;;4.60;;
18251;SDS011;26917;52.328;20.878;2022-07-17T01:46:27;12.23;;;4.40;;
18251;SDS011;26917;52.328;20.878;2022-07-17T01:48:55;13.93;;;5.10;;
18251;SDS011;26917;52.328;20.878;2022-07-17T01:51:24;8.93;;;4.95;;
18251;SDS011;26917;52.328;20.878;2022-07-17T01:57:28;13.10;;;5.40;;
18251;SDS011;26917;52.328;20.878;2022-07-17T01:59:56;13.50;;;4.85;;
18251;SDS011;26917;52.328;20.878;2022-07-17T02:05:52;10.48;;;6.18;;
18251;SDS011;26917;52.328;20.878;2022-07-17T02:11:55;16.80;;;6.18;;
18251;SDS011;26917;52.328;20.878;2022-07-17T02:14:58;8.70;;;5.50;;
18251;SDS011;26917;52.328;20.878;2022-07-17T02:20:47;9.55;;;5.90;;
18251;SDS011;26917;52.328;20.878;2022-07-17T02:26:28;17.92;;;5.60;;
18251;SDS011;26917;52.328;20.878;2022-07-17T02:29:04;16.98;;;5.68;;
18251;SDS011;26917;52.328;20.878;2022-07-17T02:32:20;18.10;;;5.97;;
18251;SDS011;26917;52.328;20.878;2022-07-17T02:36:03;15.20;;;5.80;;
18251;SDS011;26917;52.328;20.878;2022-07-17T02:39:28;9.00;;;5.95;;
18251;SDS011;26917;52.328;20.878;2022-07-17T02:48:50;15.38;;;6.20;;
18251;SDS011;26917;52.328;20.878;2022-07-17T02:51:29;12.20;;;7.05;;
18251;SDS011;26917;52.328;20.878;2022-07-17T02:55:15;11.15;;;6.30;;
18251;SDS011;26917;52.328;20.878;2022-07-17T02:58:07;13.15;;;6.35;;
18251;SDS011;26917;52.328;20.878;2022-07-17T03:00:59;22.85;;;6.65;;
18251;SDS011;26917;52.328;20.878;2022-07-17T03:12:07;18.08;;;7.80;;
18251;SDS011;26917;52.328;20.878;2022-07-17T03:14:52;15.45;;;6.38;;
18251;SDS011;26917;52.328;20.878;2022-07-17T03:17:21;21.58;;;7.15;;
18251;SDS011;26917;52.328;20.878;2022-07-17T03:19:49;20.35;;;7.28;;
18251;SDS011;26917;52.328;20.878;2022-07-17T03:22:28;22.38;;;7.45;;
18251;SDS011;26917;52.328;20.878;2022-07-17T03:25:25;22.35;;;7.45;;
18251;SDS011;26917;52.328;20.878;2022-07-17T03:27:58;16.77;;;6.40;;
18251;SDS011;26917;52.328;20.878;2022-07-17T03:31:27;16.52;;;6.70;;
18251;SDS011;26917;52.328;20.878;2022-07-17T03:37:46;28.40;;;7.10;;
18251;SDS011;26917;52.328;20.878;2022-07-17T03:40:18;11.77;;;6.28;;
18251;SDS011;26917;52.328;20.878;2022-07-17T03:42:57;12.60;;;6.72;;
18251;SDS011;26917;52.328;20.878;2022-07-17T03:45:37;16.77;;;6.53;;
18251;SDS011;26917;52.328;20.878;2022-07-17T03:49:25;19.60;;;7.68;;
18251;SDS011;26917;52.328;20.878;2022-07-17T03:53:09;15.98;;;7.78;;
18251;SDS011;26917;52.328;20.878;2022-07-17T03:59:47;15.85;;;7.43;;
18251;SDS011;26917;52.328;20.878;2022-07-17T04:02:38;23.20;;;7.68;;
18251;SDS011;26917;52.328;20.878;2022-07-17T04:05:16;27.80;;;7.43;;
18251;SDS011;26917;52.328;20.878;2022-07-17T04:08:04;13.82;;;6.97;;
18251;SDS011;26917;52.328;20.878;2022-07-17T04:10:36;18.88;;;8.10;;
18251;SDS011;26917;52.328;20.878;2022-07-17T04:13:06;21.08;;;7.20;;
18251;SDS011;26917;52.328;20.878;2022-07-17T04:15:39;20.88;;;8.10;;
18251;SDS011;26917;52.328;20.878;2022-07-17T04:18:36;19.30;;;7.25;;
18251;SDS011;26917;52.328;20.878;2022-07-17T04:21:06;27.67;;;7.65;;
18251;SDS011;26917;52.328;20.878;2022-07-17T04:23:36;14.63;;;7.10;;
18251;SDS011;26917;52.328;20.878;2022-07-17T04:26:08;21.60;;;7.97;;
18251;SDS011;26917;52.328;20.878;2022-07-17T04:28:43;14.95;;;7.93;;
18251;SDS011;26917;52.328;20.878;2022-07-17T04:31:14;20.15;;;9.20;;
18251;SDS011;26917;52.328;20.878;2022-07-17T04:33:51;14.65;;;7.10;;
18251;SDS011;26917;52.328;20.878;2022-07-17T04:36:20;13.23;;;6.88;;
18251;SDS011;26917;52.328;20.878;2022-07-17T04:38:49;20.70;;;8.27;;
18251;SDS011;26917;52.328;20.878;2022-07-17T04:41:17;21.85;;;7.43;;
18251;SDS011;26917;52.328;20.878;2022-07-17T04:43:45;12.55;;;6.97;;
18251;SDS011;26917;52.328;20.878;2022-07-17T04:46:23;18.48;;;6.82;;
18251;SDS011;26917;52.328;20.878;2022-07-17T04:48:51;14.68;;;6.60;;
18251;SDS011;26917;52.328;20.878;2022-07-17T04:51:19;16.55;;;9.60;;
18251;SDS011;26917;52.328;20.878;2022-07-17T04:53:48;13.20;;;6.95;;
18251;SDS011;26917;52.328;20.878;2022-07-17T04:56:16;11.93;;;6.80;;
18251;SDS011;26917;52.328;20.878;2022-07-17T04:58:44;22.00;;;8.50;;
18251;SDS011;26917;52.328;20.878;2022-07-17T05:01:13;18.42;;;7.43;;
18251;SDS011;26917;52.328;20.878;2022-07-17T05:03:43;16.27;;;6.95;;
18251;SDS011;26917;52.328;20.878;2022-07-17T05:06:22;15.93;;;7.30;;
18251;SDS011;26917;52.328;20.878;2022-07-17T05:08:52;18.85;;;6.55;;
18251;SDS011;26917;52.328;20.878;2022-07-17T05:11:20;14.60;;;7.00;;
18251;SDS011;26917;52.328;20.878;2022-07-17T05:13:48;14.52;;;7.38;;
18251;SDS011;26917;52.328;20.878;2022-07-17T05:16:17;10.20;;;6.15;;
18251;SDS011;26917;52.328;20.878;2022-07-17T05:21:41;15.20;;;6.10;;
18251;SDS011;26917;52.328;20.878;2022-07-17T05:24:10;14.77;;;6.22;;
18251;SDS011;26917;52.328;20.878;2022-07-17T05:26:38;9.85;;;6.40;;
18251;SDS011;26917;52.328;20.878;2022-07-17T05:29:07;15.98;;;6.18;;
18251;SDS011;26917;52.328;20.878;2022-07-17T05:31:35;14.77;;;6.88;;
18251;SDS011;26917;52.328;20.878;2022-07-17T05:34:04;26.38;;;7.22;;
18251;SDS011;26917;52.328;20.878;2022-07-17T05:36:36;12.88;;;7.22;;
18251;SDS011;26917;52.328;20.878;2022-07-17T05:39:04;24.48;;;7.18;;
18251;SDS011;26917;52.328;20.878;2022-07-17T05:41:36;11.75;;;7.63;;
18251;SDS011;26917;52.328;20.878;2022-07-17T05:44:09;18.20;;;6.75;;
18251;SDS011;26917;52.328;20.878;2022-07-17T05:46:37;19.00;;;7.40;;
18251;SDS011;26917;52.328;20.878;2022-07-17T05:49:06;16.83;;;6.82;;
18251;SDS011;26917;52.328;20.878;2022-07-17T05:51:40;18.45;;;6.55;;
18251;SDS011;26917;52.328;20.878;2022-07-17T05:54:08;21.70;;;6.93;;
18251;SDS011;26917;52.328;20.878;2022-07-17T05:56:36;12.32;;;6.85;;
18251;SDS011;26917;52.328;20.878;2022-07-17T05:59:05;13.68;;;6.75;;
18251;SDS011;26917;52.328;20.878;2022-07-17T06:01:33;26.80;;;7.47;;
18251;SDS011;26917;52.328;20.878;2022-07-17T06:04:01;14.02;;;5.97;;
18251;SDS011;26917;52.328;20.878;2022-07-17T06:06:33;27.08;;;6.70;;
18251;SDS011;26917;52.328;20.878;2022-07-17T06:09:02;20.40;;;6.47;;
18251;SDS011;26917;52.328;20.878;2022-07-17T06:11:31;12.15;;;5.97;;
18251;SDS011;26917;52.328;20.878;2022-07-17T06:14:09;15.52;;;7.20;;
18251;SDS011;26917;52.328;20.878;2022-07-17T06:16:38;18.60;;;6.50;;
18251;SDS011;26917;52.328;20.878;2022-07-17T06:19:06;19.83;;;6.50;;
18251;SDS011;26917;52.328;20.878;2022-07-17T06:21:35;26.05;;;6.65;;
18251;SDS011;26917;52.328;20.878;2022-07-17T06:24:06;22.85;;;7.18;;
18251;SDS011;26917;52.328;20.878;2022-07-17T06:26:34;8.23;;;5.18;;
18251;SDS011;26917;52.328;20.878;2022-07-17T06:29:03;14.35;;;5.22;;
18251;SDS011;26917;52.328;20.878;2022-07-17T06:31:33;8.30;;;5.15;;
18251;SDS011;26917;52.328;20.878;2022-07-17T06:34:02;10.95;;;5.32;;
18251;SDS011;26917;52.328;20.878;2022-07-17T06:36:31;7.57;;;5.15;;
18251;SDS011;26917;52.328;20.878;2022-07-17T06:38:59;13.30;;;6.22;;
18251;SDS011;26917;52.328;20.878;2022-07-17T06:41:30;16.15;;;5.05;;
18251;SDS011;26917;52.328;20.878;2022-07-17T06:44:07;10.38;;;6.20;;
18251;SDS011;26917;52.328;20.878;2022-07-17T06:46:38;11.95;;;5.50;;
18251;SDS011;26917;52.328;20.878;2022-07-17T06:49:07;14.38;;;6.13;;
18251;SDS011;26917;52.328;20.878;2022-07-17T06:51:35;12.68;;;5.07;;
18251;SDS011;26917;52.328;20.878;2022-07-17T06:54:04;18.75;;;5.68;;
18251;SDS011;26917;52.328;20.878;2022-07-17T06:56:34;16.13;;;5.65;;
18251;SDS011;26917;52.328;20.878;2022-07-17T06:59:03;13.63;;;5.72;;
18251;SDS011;26917;52.328;20.878;2022-07-17T07:01:33;14.52;;;5.50;;
18251;SDS011;26917;52.328;20.878;2022-07-17T07:04:07;7.03;;;5.88;;
18251;SDS011;26917;52.328;20.878;2022-07-17T07:06:35;17.58;;;6.03;;
18251;SDS011;26917;52.328;20.878;2022-07-17T07:09:04;14.88;;;4.63;;
18251;SDS011;26917;52.328;20.878;2022-07-17T07:11:37;13.95;;;7.60;;
18251;SDS011;26917;52.328;20.878;2022-07-17T07:14:06;15.20;;;8.25;;
18251;SDS011;26917;52.328;20.878;2022-07-17T07:16:35;16.98;;;8.63;;
18251;SDS011;26917;52.328;20.878;2022-07-17T07:19:04;21.80;;;8.02;;
18251;SDS011;26917;52.328;20.878;2022-07-17T07:21:46;18.38;;;8.90;;
18251;SDS011;26917;52.328;20.878;2022-07-17T07:24:17;12.40;;;8.02;;
18251;SDS011;26917;52.328;20.878;2022-07-17T07:26:47;20.27;;;8.45;;
18251;SDS011;26917;52.328;20.878;2022-07-17T07:29:15;12.30;;;8.00;;
18251;SDS011;26917;52.328;20.878;2022-07-17T07:31:43;13.38;;;8.65;;
18251;SDS011;26917;52.328;20.878;2022-07-17T07:34:14;9.80;;;8.23;;
18251;SDS011;26917;52.328;20.878;2022-07-17T07:36:42;13.32;;;8.75;;
18251;SDS011;26917;52.328;20.878;2022-07-17T07:39:10;11.65;;;7.90;;
18251;SDS011;26917;52.328;20.878;2022-07-17T07:41:38;12.52;;;8.18;;
18251;SDS011;26917;52.328;20.878;2022-07-17T07:44:10;14.15;;;9.57;;
18251;SDS011;26917;52.328;20.878;2022-07-17T07:46:56;12.23;;;7.90;;
18251;SDS011;26917;52.328;20.878;2022-07-17T07:49:27;15.40;;;8.48;;
18251;SDS011;26917;52.328;20.878;2022-07-17T07:52:04;19.67;;;8.18;;
18251;SDS011;26917;52.328;20.878;2022-07-17T07:54:34;12.20;;;6.90;;
18251;SDS011;26917;52.328;20.878;2022-07-17T07:57:03;13.05;;;7.80;;
18251;SDS011;26917;52.328;20.878;2022-07-17T07:59:32;15.60;;;6.53;;
18251;SDS011;26917;52.328;20.878;2022-07-17T08:02:01;9.80;;;6.05;;
18251;SDS011;26917;52.328;20.878;2022-07-17T08:04:30;6.55;;;5.68;;
18251;SDS011;26917;52.328;20.878;2022-07-17T08:06:58;12.40;;;5.68;;
18251;SDS011;26917;52.328;20.878;2022-07-17T08:09:27;15.13;;;5.40;;
18251;SDS011;26917;52.328;20.878;2022-07-17T08:11:58;11.10;;;5.03;;
18251;SDS011;26917;52.328;20.878;2022-07-17T08:14:47;12.40;;;6.00;;
18251;SDS011;26917;52.328;20.878;2022-07-17T08:17:16;14.57;;;6.47;;
18251;SDS011;26917;52.328;20.878;2022-07-17T08:19:45;18.00;;;6.38;;
18251;SDS011;26917;52.328;20.878;2022-07-17T08:22:14;14.02;;;5.85;;
18251;SDS011;26917;52.328;20.878;2022-07-17T08:24:42;8.98;;;4.72;;
18251;SDS011;26917;52.328;20.878;2022-07-17T08:27:11;10.00;;;4.78;;
18251;SDS011;26917;52.328;20.878;2022-07-17T08:29:43;8.80;;;4.90;;
18251;SDS011;26917;52.328;20.878;2022-07-17T08:32:29;12.65;;;4.45;;
18251;SDS011;26917;52.328;20.878;2022-07-17T08:34:57;9.43;;;4.60;;
18251;SDS011;26917;52.328;20.878;2022-07-17T08:37:25;8.13;;;4.65;;
18251;SDS011;26917;52.328;20.878;2022-07-17T08:39:57;7.75;;;4.05;;
18251;SDS011;26917;52.328;20.878;2022-07-17T08:42:27;10.40;;;3.88;;
18251;SDS011;26917;52.328;20.878;2022-07-17T08:44:58;5.80;;;4.22;;
18251;SDS011;26917;52.328;20.878;2022-07-17T08:47:41;10.65;;;4.13;;
18251;SDS011;26917;52.328;20.878;2022-07-17T08:50:10;4.85;;;3.90;;
18251;SDS011;26917;52.328;20.878;2022-07-17T08:52:42;6.05;;;3.90;;
18251;SDS011;26917;52.328;20.878;2022-07-17T08:55:12;7.47;;;4.38;;
18251;SDS011;26917;52.328;20.878;2022-07-17T08:57:42;7.07;;;4.30;;
18251;SDS011;26917;52.328;20.878;2022-07-17T09:00:13;11.25;;;3.50;;
18251;SDS011;26917;52.328;20.878;2022-07-17T09:02:54;6.05;;;3.67;;
18251;SDS011;26917;52.328;20.878;2022-07-17T09:05:24;10.02;;;3.35;;
18251;SDS011;26917;52.328;20.878;2022-07-17T09:07:55;5.38;;;3.55;;
18251;SDS011;26917;52.328;20.878;2022-07-17T09:10:30;3.33;;;3.03;;
18251;SDS011;26917;52.328;20.878;2022-07-17T09:13:00;2.85;;;2.65;;
18251;SDS011;26917;52.328;20.878;2022-07-17T09:15:32;5.72;;;2.50;;
18251;SDS011;26917;52.328;20.878;2022-07-17T09:18:02;4.55;;;3.30;;
18251;SDS011;26917;52.328;20.878;2022-07-17T09:20:31;4.65;;;3.40;;
18251;SDS011;26917;52.328;20.878;2022-07-17T09:23:00;11.73;;;3.90;;
18251;SDS011;26917;52.328;20.878;2022-07-17T09:25:34;5.35;;;3.97;;
18251;SDS011;26917;52.328;20.878;2022-07-17T09:28:07;7.15;;;3.60;;
18251;SDS011;26917;52.328;20.878;2022-07-17T09:30:37;11.85;;;4.18;;
18251;SDS011;26917;52.328;20.878;2022-07-17T09:33:13;6.10;;;4.30;;
18251;SDS011;26917;52.328;20.878;2022-07-17T09:35:49;4.97;;;3.47;;
18251;SDS011;26917;52.328;20.878;2022-07-17T09:38:26;5.20;;;3.60;;
18251;SDS011;26917;52.328;20.878;2022-07-17T09:41:06;4.05;;;3.10;;
18251;SDS011;26917;52.328;20.878;2022-07-17T09:43:41;8.52;;;2.97;;
18251;SDS011;26917;52.328;20.878;2022-07-17T09:46:14;6.55;;;2.65;;
18251;SDS011;26917;52.328;20.878;2022-07-17T09:48:50;7.15;;;3.22;;
18251;SDS011;26917;52.328;20.878;2022-07-17T09:51:21;5.32;;;2.85;;
18251;SDS011;26917;52.328;20.878;2022-07-17T09:53:52;4.72;;;2.85;;
18251;SDS011;26917;52.328;20.878;2022-07-17T09:56:23;4.93;;;3.05;;
18251;SDS011;26917;52.328;20.878;2022-07-17T09:58:53;9.88;;;3.05;;
18251;SDS011;26917;52.328;20.878;2022-07-17T10:01:24;4.05;;;2.63;;
18251;SDS011;26917;52.328;20.878;2022-07-17T10:03:54;7.35;;;2.78;;
18251;SDS011;26917;52.328;20.878;2022-07-17T10:06:23;13.30;;;2.85;;
18251;SDS011;26917;52.328;20.878;2022-07-17T10:08:55;5.30;;;2.83;;
18251;SDS011;26917;52.328;20.878;2022-07-17T10:11:25;4.35;;;2.72;;
18251;SDS011;26917;52.328;20.878;2022-07-17T10:14:02;3.50;;;2.92;;
18251;SDS011;26917;52.328;20.878;2022-07-17T10:16:37;4.07;;;3.00;;
18251;SDS011;26917;52.328;20.878;2022-07-17T10:19:18;4.95;;;2.70;;
18251;SDS011;26917;52.328;20.878;2022-07-17T10:21:54;2.17;;;1.98;;
18251;SDS011;26917;52.328;20.878;2022-07-17T10:24:24;2.85;;;2.28;;
18251;SDS011;26917;52.328;20.878;2022-07-17T10:26:59;4.97;;;2.58;;
18251;SDS011;26917;52.328;20.878;2022-07-17T10:29:37;2.17;;;2.08;;
18251;SDS011;26917;52.328;20.878;2022-07-17T10:32:15;2.83;;;2.60;;
18251;SDS011;26917;52.328;20.878;2022-07-17T10:34:53;2.53;;;1.88;;
18251;SDS011;26917;52.328;20.878;2022-07-17T10:37:27;7.28;;;2.35;;
18251;SDS011;26917;52.328;20.878;2022-07-17T10:40:00;3.33;;;2.17;;
18251;SDS011;26917;52.328;20.878;2022-07-17T10:42:38;6.43;;;2.65;;
18251;SDS011;26917;52.328;20.878;2022-07-17T10:45:23;2.40;;;2.20;;
18251;SDS011;26917;52.328;20.878;2022-07-17T10:47:56;4.70;;;2.47;;
18251;SDS011;26917;52.328;20.878;2022-07-17T10:50:28;2.75;;;2.55;;
18251;SDS011;26917;52.328;20.878;2022-07-17T10:53:07;3.78;;;2.50;;
18251;SDS011;26917;52.328;20.878;2022-07-17T10:55:38;3.42;;;2.50;;
18251;SDS011;26917;52.328;20.878;2022-07-17T10:58:19;3.88;;;2.30;;
18251;SDS011;26917;52.328;20.878;2022-07-17T11:00:57;3.20;;;2.28;;
18251;SDS011;26917;52.328;20.878;2022-07-17T11:03:27;2.58;;;2.35;;
18251;SDS011;26917;52.328;20.878;2022-07-17T11:06:06;2.95;;;2.75;;
18251;SDS011;26917;52.328;20.878;2022-07-17T11:08:40;2.45;;;2.25;;
18251;SDS011;26917;52.328;20.878;2022-07-17T11:11:09;2.28;;;2.13;;
18251;SDS011;26917;52.328;20.878;2022-07-17T11:13:47;3.58;;;2.22;;
18251;SDS011;26917;52.328;20.878;2022-07-17T11:16:27;2.13;;;2.03;;
18251;SDS011;26917;52.328;20.878;2022-07-17T11:19:24;2.85;;;1.83;;
18251;SDS011;26917;52.328;20.878;2022-07-17T11:22:04;4.15;;;2.83;;
18251;SDS011;26917;52.328;20.878;2022-07-17T11:24:36;3.75;;;3.38;;
18251;SDS011;26917;52.328;20.878;2022-07-17T11:27:05;3.03;;;2.83;;
18251;SDS011;26917;52.328;20.878;2022-07-17T11:29:36;8.82;;;2.80;;
18251;SDS011;26917;52.328;20.878;2022-07-17T11:32:31;4.00;;;3.08;;
18251;SDS011;26917;52.328;20.878;2022-07-17T11:35:01;3.20;;;2.92;;
18251;SDS011;26917;52.328;20.878;2022-07-17T11:40:35;3.20;;;2.70;;
18251;SDS011;26917;52.328;20.878;2022-07-17T11:43:23;2.70;;;2.50;;
18251;SDS011;26917;52.328;20.878;2022-07-17T11:45:52;2.10;;;1.98;;
18251;SDS011;26917;52.328;20.878;2022-07-17T11:48:21;2.40;;;2.20;;
18251;SDS011;26917;52.328;20.878;2022-07-17T11:50:54;5.32;;;2.70;;
18251;SDS011;26917;52.328;20.878;2022-07-17T11:56:18;7.43;;;2.67;;
18251;SDS011;26917;52.328;20.878;2022-07-17T11:58:48;4.63;;;2.45;;
18251;SDS011;26917;52.328;20.878;2022-07-17T12:01:37;3.05;;;1.85;;
18251;SDS011;26917;52.328;20.878;2022-07-17T12:04:24;3.65;;;2.20;;
18251;SDS011;26917;52.328;20.878;2022-07-17T12:06:59;4.72;;;1.88;;
18251;SDS011;26917;52.328;20.878;2022-07-17T12:09:31;2.08;;;1.90;;
18251;SDS011;26917;52.328;20.878;2022-07-17T12:12:01;3.33;;;2.10;;
18251;SDS011;26917;52.328;20.878;2022-07-17T12:14:33;2.20;;;2.10;;
18251;SDS011;26917;52.328;20.878;2022-07-17T12:17:02;2.22;;;1.92;;
18251;SDS011;26917;52.328;20.878;2022-07-17T12:19:32;2.20;;;2.10;;
18251;SDS011;26917;52.328;20.878;2022-07-17T12:22:01;4.68;;;2.45;;
18251;SDS011;26917;52.328;20.878;2022-07-17T12:27:34;2.65;;;2.53;;
18251;SDS011;26917;52.328;20.878;2022-07-17T12:30:09;2.53;;;2.42;;
18251;SDS011;26917;52.328;20.878;2022-07-17T12:32:41;3.33;;;2.78;;
18251;SDS011;26917;52.328;20.878;2022-07-17T12:35:25;6.28;;;3.17;;
18251;SDS011;26917;52.328;20.878;2022-07-17T12:37:54;19.08;;;2.63;;
18251;SDS011;26917;52.328;20.878;2022-07-17T12:40:25;2.35;;;2.25;;
18251;SDS011;26917;52.328;20.878;2022-07-17T12:42:53;1.80;;;1.70;;
18251;SDS011;26917;52.328;20.878;2022-07-17T12:45:23;2.75;;;2.17;;
18251;SDS011;26917;52.328;20.878;2022-07-17T12:47:52;3.08;;;2.40;;
18251;SDS011;26917;52.328;20.878;2022-07-17T12:50:21;2.67;;;2.25;;
18251;SDS011;26917;52.328;20.878;2022-07-17T12:52:49;2.60;;;2.40;;
18251;SDS011;26917;52.328;20.878;2022-07-17T12:55:27;3.00;;;2.67;;
18251;SDS011;26917;52.328;20.878;2022-07-17T12:57:55;3.10;;;2.58;;
18251;SDS011;26917;52.328;20.878;2022-07-17T13:00:25;5.00;;;2.35;;
18251;SDS011;26917;52.328;20.878;2022-07-17T13:02:54;2.03;;;1.92;;
18251;SDS011;26917;52.328;20.878;2022-07-17T13:05:32;2.38;;;2.03;;
18251;SDS011;26917;52.328;20.878;2022-07-17T13:08:16;2.30;;;2.10;;
18251;SDS011;26917;52.328;20.878;2022-07-17T13:13:43;2.13;;;2.03;;
18251;SDS011;26917;52.328;20.878;2022-07-17T13:16:12;2.95;;;2.10;;
18251;SDS011;26917;52.328;20.878;2022-07-17T13:18:44;2.17;;;2.00;;
18251;SDS011;26917;52.328;20.878;2022-07-17T13:21:16;2.20;;;2.10;;
18251;SDS011;26917;52.328;20.878;2022-07-17T13:23:44;1.75;;;1.65;;
18251;SDS011;26917;52.328;20.878;2022-07-17T13:26:17;5.05;;;2.90;;
18251;SDS011;26917;52.328;20.878;2022-07-17T13:28:52;3.15;;;2.00;;
18251;SDS011;26917;52.328;20.878;2022-07-17T13:31:29;3.92;;;2.08;;
18251;SDS011;26917;52.328;20.878;2022-07-17T13:33:58;3.47;;;2.08;;
18251;SDS011;26917;52.328;20.878;2022-07-17T13:36:27;3.92;;;2.00;;
18251;SDS011;26917;52.328;20.878;2022-07-17T13:38:57;1.85;;;1.75;;
18251;SDS011;26917;52.328;20.878;2022-07-17T13:41:27;2.00;;;1.90;;
18251;SDS011;26917;52.328;20.878;2022-07-17T13:44:01;3.05;;;1.73;;
18251;SDS011;26917;52.328;20.878;2022-07-17T13:46:35;1.92;;;1.83;;
18251;SDS011;26917;52.328;20.878;2022-07-17T13:49:09;2.22;;;2.00;;
18251;SDS011;26917;52.328;20.878;2022-07-17T13:51:37;2.42;;;1.83;;
18251;SDS011;26917;52.328;20.878;2022-07-17T13:54:06;3.15;;;1.40;;
18251;SDS011;26917;52.328;20.878;2022-07-17T13:56:41;1.85;;;1.75;;
18251;SDS011;26917;52.328;20.878;2022-07-17T13:59:21;6.75;;;2.00;;
18251;SDS011;26917;52.328;20.878;2022-07-17T14:01:49;2.72;;;1.80;;
18251;SDS011;26917;52.328;20.878;2022-07-17T14:04:18;1.80;;;1.70;;
18251;SDS011;26917;52.328;20.878;2022-07-17T14:06:49;1.95;;;1.83;;
18251;SDS011;26917;52.328;20.878;2022-07-17T14:09:33;1.95;;;1.85;;
18251;SDS011;26917;52.328;20.878;2022-07-17T14:12:03;3.58;;;1.75;;
18251;SDS011;26917;52.328;20.878;2022-07-17T14:14:32;1.80;;;1.70;;
18251;SDS011;26917;52.328;20.878;2022-07-17T14:17:01;2.90;;;1.90;;
18251;SDS011;26917;52.328;20.878;2022-07-17T14:19:30;3.28;;;2.33;;
18251;SDS011;26917;52.328;20.878;2022-07-17T14:22:02;6.95;;;2.40;;
18251;SDS011;26917;52.328;20.878;2022-07-17T14:24:32;4.05;;;1.85;;
18251;SDS011;26917;52.328;20.878;2022-07-17T14:27:11;3.63;;;2.20;;
18251;SDS011;26917;52.328;20.878;2022-07-17T14:29:40;5.85;;;2.15;;
18251;SDS011;26917;52.328;20.878;2022-07-17T14:32:08;2.53;;;1.88;;
18251;SDS011;26917;52.328;20.878;2022-07-17T14:34:37;3.25;;;2.25;;
18251;SDS011;26917;52.328;20.878;2022-07-17T14:37:15;2.75;;;2.05;;
18251;SDS011;26917;52.328;20.878;2022-07-17T14:39:44;2.75;;;2.47;;
18251;SDS011;26917;52.328;20.878;2022-07-17T14:42:15;9.65;;;2.50;;
18251;SDS011;26917;52.328;20.878;2022-07-17T14:44:55;2.20;;;1.83;;
18251;SDS011;26917;52.328;20.878;2022-07-17T14:47:23;3.80;;;2.40;;
18251;SDS011;26917;52.328;20.878;2022-07-17T14:49:52;2.30;;;2.03;;
18251;SDS011;26917;52.328;20.878;2022-07-17T14:52:22;2.30;;;2.10;;
18251;SDS011;26917;52.328;20.878;2022-07-17T14:54:50;4.32;;;2.45;;
18251;SDS011;26917;52.328;20.878;2022-07-17T14:57:20;2.78;;;2.58;;
18251;SDS011;26917;52.328;20.878;2022-07-17T14:59:53;2.30;;;2.20;;
18251;SDS011;26917;52.328;20.878;2022-07-17T15:02:22;3.83;;;2.30;;
18251;SDS011;26917;52.328;20.878;2022-07-17T15:04:52;2.90;;;2.30;;
18251;SDS011;26917;52.328;20.878;2022-07-17T15:07:20;3.22;;;2.20;;
18251;SDS011;26917;52.328;20.878;2022-07-17T15:09:49;2.63;;;2.42;;
18251;SDS011;26917;52.328;20.878;2022-07-17T15:15:05;2.83;;;2.53;;
18251;SDS011;26917;52.328;20.878;2022-07-17T15:17:38;3.33;;;2.17;;
18251;SDS011;26917;52.328;20.878;2022-07-17T15:20:07;4.35;;;2.20;;
18251;SDS011;26917;52.328;20.878;2022-07-17T15:22:40;4.50;;;2.03;;
18251;SDS011;26917;52.328;20.878;2022-07-17T15:25:08;3.90;;;2.05;;
18251;SDS011;26917;52.328;20.878;2022-07-17T15:27:38;2.05;;;1.85;;
18251;SDS011;26917;52.328;20.878;2022-07-17T15:30:10;2.33;;;2.13;;
18251;SDS011;26917;52.328;20.878;2022-07-17T15:32:45;4.20;;;2.63;;
18251;SDS011;26917;52.328;20.878;2022-07-17T15:35:14;3.38;;;2.40;;
18251;SDS011;26917;52.328;20.878;2022-07-17T15:37:43;4.45;;;2.00;;
18251;SDS011;26917;52.328;20.878;2022-07-17T15:40:11;2.80;;;2.50;;
18251;SDS011;26917;52.328;20.878;2022-07-17T15:42:44;2.92;;;2.35;;
18251;SDS011;26917;52.328;20.878;2022-07-17T15:45:13;3.80;;;1.90;;
18251;SDS011;26917;52.328;20.878;2022-07-17T15:47:45;5.22;;;2.00;;
18251;SDS011;26917;52.328;20.878;2022-07-17T15:50:19;5.72;;;2.13;;
18251;SDS011;26917;52.328;20.878;2022-07-17T15:52:51;2.58;;;2.10;;
18251;SDS011;26917;52.328;20.878;2022-07-17T15:55:23;4.25;;;2.25;;
18251;SDS011;26917;52.328;20.878;2022-07-17T15:58:12;3.20;;;2.25;;
18251;SDS011;26917;52.328;20.878;2022-07-17T16:00:41;5.05;;;2.28;;
18251;SDS011;26917;52.328;20.878;2022-07-17T16:03:11;2.63;;;2.22;;
18251;SDS011;26917;52.328;20.878;2022-07-17T16:05:39;4.85;;;2.10;;
18251;SDS011;26917;52.328;20.878;2022-07-17T16:08:08;5.55;;;2.40;;
18251;SDS011;26917;52.328;20.878;2022-07-17T16:10:36;2.28;;;2.13;;
18251;SDS011;26917;52.328;20.878;2022-07-17T16:13:06;2.80;;;1.83;;
18251;SDS011;26917;52.328;20.878;2022-07-17T16:15:35;3.35;;;2.70;;
18251;SDS011;26917;52.328;20.878;2022-07-17T16:18:06;3.38;;;2.83;;
18251;SDS011;26917;52.328;20.878;2022-07-17T16:20:35;3.60;;;2.35;;
18251;SDS011;26917;52.328;20.878;2022-07-17T16:23:04;3.08;;;2.28;;
18251;SDS011;26917;52.328;20.878;2022-07-17T16:25:33;3.17;;;2.60;;